sensor_id;sensor_type;location;lat;lon;timestamp;pressure;altitude;pressure_sealevel;temperature;humidity
65534;BME280;53640;55.838;37.184;2022-08-20T00:01:45;100164.66;;;18.58;31.40
65534;BME280;53640;55.838;37.184;2022-08-20T00:04:12;100136.78;;;18.44;31.51
65534;BME280;53640;55.838;37.184;2022-08-20T00:06:39;100176.22;;;18.60;31.61
65534;BME280;53640;55.838;37.184;2022-08-20T00:09:06;100165.38;;;18.48;31.48
65534;BME280;53640;55.838;37.184;2022-08-20T00:11:32;100173.91;;;18.52;32.02
65534;BME280;53640;55.838;37.184;2022-08-20T00:14:01;100182.06;;;18.47;31.67
65534;BME280;53640;55.838;37.184;2022-08-20T00:16:31;100164.53;;;18.31;32.42
65534;BME280;53640;55.838;37.184;2022-08-20T00:19:02;100192.72;;;18.43;32.56
65534;BME280;53640;55.838;37.184;2022-08-20T00:21:29;100080.47;;;17.69;32.37
65534;BME280;53640;55.838;37.184;2022-08-20T00:23:56;100122.72;;;17.90;32.87
65534;BME280;53640;55.838;37.184;2022-08-20T00:26:24;100173.91;;;18.18;32.67
65534;BME280;53640;55.838;37.184;2022-08-20T00:28:50;100152.84;;;18.02;32.82
65534;BME280;53640;55.838;37.184;2022-08-20T00:31:19;100170.78;;;18.10;32.68
65534;BME280;53640;55.838;37.184;2022-08-20T00:33:46;100184.69;;;18.08;32.85
65534;BME280;53640;55.838;37.184;2022-08-20T00:36:13;100177.97;;;17.99;33.33
65534;BME280;53640;55.838;37.184;2022-08-20T00:38:44;100181.31;;;17.89;33.54
65534;BME280;53640;55.838;37.184;2022-08-20T00:41:15;100200.63;;;17.94;33.29
65534;BME280;53640;55.838;37.184;2022-08-20T00:43:55;100193.09;;;17.90;33.55
65534;BME280;53640;55.838;37.184;2022-08-20T00:46:29;100172.00;;;17.73;33.49
65534;BME280;53640;55.838;37.184;2022-08-20T00:48:56;100173.91;;;17.73;33.82
65534;BME280;53640;55.838;37.184;2022-08-20T00:51:31;100191.59;;;17.82;33.79
65534;BME280;53640;55.838;37.184;2022-08-20T00:56:37;100184.13;;;17.77;33.99
65534;BME280;53640;55.838;37.184;2022-08-20T00:59:07;100183.44;;;17.70;34.37
65534;BME280;53640;55.838;37.184;2022-08-20T01:01:38;100182.34;;;17.71;34.55
65534;BME280;53640;55.838;37.184;2022-08-20T01:04:05;100168.50;;;17.61;34.50
65534;BME280;53640;55.838;37.184;2022-08-20T01:06:31;100179.53;;;17.66;34.27
65534;BME280;53640;55.838;37.184;2022-08-20T01:08:58;100179.78;;;17.65;34.95
65534;BME280;53640;55.838;37.184;2022-08-20T01:11:28;100121.03;;;17.27;35.05
65534;BME280;53640;55.838;37.184;2022-08-20T01:14:05;100136.09;;;17.29;35.17
65534;BME280;53640;55.838;37.184;2022-08-20T01:16:51;100179.50;;;17.49;35.42
65534;BME280;53640;55.838;37.184;2022-08-20T01:19:27;100183.06;;;17.50;35.11
65534;BME280;53640;55.838;37.184;2022-08-20T01:21:57;100131.75;;;17.17;35.48
65534;BME280;53640;55.838;37.184;2022-08-20T01:24:36;100178.44;;;17.39;35.59
65534;BME280;53640;55.838;37.184;2022-08-20T01:27:06;100186.53;;;17.34;35.75
65534;BME280;53640;55.838;37.184;2022-08-20T01:29:38;100149.09;;;17.11;35.90
65534;BME280;53640;55.838;37.184;2022-08-20T01:32:05;100180.72;;;17.30;36.03
65534;BME280;53640;55.838;37.184;2022-08-20T01:34:32;100154.47;;;17.05;36.49
65534;BME280;53640;55.838;37.184;2022-08-20T01:36:58;100138.66;;;16.96;35.95
65534;BME280;53640;55.838;37.184;2022-08-20T01:39:31;100187.31;;;17.17;36.06
65534;BME280;53640;55.838;37.184;2022-08-20T01:44:25;100184.44;;;17.12;36.53
65534;BME280;53640;55.838;37.184;2022-08-20T01:46:53;100154.38;;;16.89;36.56
65534;BME280;53640;55.838;37.184;2022-08-20T01:49:28;100207.28;;;17.18;36.30
65534;BME280;53640;55.838;37.184;2022-08-20T01:51:59;100189.44;;;17.03;36.45
65534;BME280;53640;55.838;37.184;2022-08-20T01:54:26;100181.38;;;16.97;36.16
65534;BME280;53640;55.838;37.184;2022-08-20T01:57:16;100202.88;;;17.05;36.46
65534;BME280;53640;55.838;37.184;2022-08-20T01:59:44;100174.94;;;16.91;36.66
65534;BME280;53640;55.838;37.184;2022-08-20T02:02:11;100180.06;;;16.88;36.70
65534;BME280;53640;55.838;37.184;2022-08-20T02:04:38;100179.50;;;16.86;36.64
65534;BME280;53640;55.838;37.184;2022-08-20T02:07:06;100177.31;;;16.88;36.42
65534;BME280;53640;55.838;37.184;2022-08-20T02:09:36;100194.69;;;16.93;36.84
65534;BME280;53640;55.838;37.184;2022-08-20T02:12:07;100204.31;;;16.96;37.05
65534;BME280;53640;55.838;37.184;2022-08-20T02:14:34;100213.94;;;16.98;37.05
65534;BME280;53640;55.838;37.184;2022-08-20T02:17:01;100181.72;;;16.77;37.25
65534;BME280;53640;55.838;37.184;2022-08-20T02:19:34;100203.84;;;16.87;37.76
65534;BME280;53640;55.838;37.184;2022-08-20T02:22:19;100206.69;;;16.80;37.97
65534;BME280;53640;55.838;37.184;2022-08-20T02:24:46;100215.03;;;16.86;38.10
65534;BME280;53640;55.838;37.184;2022-08-20T02:27:12;100201.34;;;16.74;37.99
65534;BME280;53640;55.838;37.184;2022-08-20T02:29:39;100220.84;;;16.77;38.44
65534;BME280;53640;55.838;37.184;2022-08-20T02:32:06;100218.09;;;16.77;38.44
65534;BME280;53640;55.838;37.184;2022-08-20T02:34:34;100203.97;;;16.69;38.58
65534;BME280;53640;55.838;37.184;2022-08-20T02:37:01;100186.50;;;16.58;38.19
65534;BME280;53640;55.838;37.184;2022-08-20T02:39:28;100212.78;;;16.71;38.15
65534;BME280;53640;55.838;37.184;2022-08-20T02:41:54;100213.34;;;16.73;37.90
65534;BME280;53640;55.838;37.184;2022-08-20T02:44:20;100228.94;;;16.72;38.29
65534;BME280;53640;55.838;37.184;2022-08-20T02:46:48;100204.06;;;16.62;38.45
65534;BME280;53640;55.838;37.184;2022-08-20T02:49:18;100236.66;;;16.75;38.25
65534;BME280;53640;55.838;37.184;2022-08-20T02:51:45;100188.16;;;16.47;38.33
65534;BME280;53640;55.838;37.184;2022-08-20T02:54:12;100238.31;;;16.76;38.22
65534;BME280;53640;55.838;37.184;2022-08-20T02:56:39;100216.91;;;16.62;38.42
65534;BME280;53640;55.838;37.184;2022-08-20T02:59:05;100236.31;;;16.72;37.88
65534;BME280;53640;55.838;37.184;2022-08-20T03:01:33;100203.03;;;16.51;38.29
65534;BME280;53640;55.838;37.184;2022-08-20T03:03:59;100201.44;;;16.44;38.29
65534;BME280;53640;55.838;37.184;2022-08-20T03:06:26;100209.06;;;16.53;38.11
65534;BME280;53640;55.838;37.184;2022-08-20T03:08:53;100241.31;;;16.75;38.12
65534;BME280;53640;55.838;37.184;2022-08-20T03:11:19;100224.06;;;16.63;38.17
65534;BME280;53640;55.838;37.184;2022-08-20T03:13:46;100226.19;;;16.72;37.52
65534;BME280;53640;55.838;37.184;2022-08-20T03:16:13;100245.34;;;16.84;38.10
65534;BME280;53640;55.838;37.184;2022-08-20T03:18:42;100209.69;;;16.67;38.12
65534;BME280;53640;55.838;37.184;2022-08-20T03:21:10;100233.47;;;16.90;38.03
65534;BME280;53640;55.838;37.184;2022-08-20T03:23:38;100188.19;;;16.59;37.71
65534;BME280;53640;55.838;37.184;2022-08-20T03:26:07;100241.78;;;16.95;37.43
65534;BME280;53640;55.838;37.184;2022-08-20T03:28:33;100173.78;;;16.64;37.71
65534;BME280;53640;55.838;37.184;2022-08-20T03:31:00;100226.53;;;16.99;38.03
65534;BME280;53640;55.838;37.184;2022-08-20T03:33:28;100213.22;;;16.91;37.66
65534;BME280;53640;55.838;37.184;2022-08-20T03:35:57;100241.06;;;17.12;37.58
65534;BME280;53640;55.838;37.184;2022-08-20T03:38:24;100245.47;;;17.13;37.37
65534;BME280;53640;55.838;37.184;2022-08-20T03:40:51;100248.31;;;17.18;37.55
65534;BME280;53640;55.838;37.184;2022-08-20T03:45:44;100239.75;;;17.14;37.77
65534;BME280;53640;55.838;37.184;2022-08-20T03:48:14;100216.22;;;17.01;37.50
65534;BME280;53640;55.838;37.184;2022-08-20T03:50:41;100213.69;;;17.00;37.93
65534;BME280;53640;55.838;37.184;2022-08-20T03:53:09;100242.38;;;17.21;37.57
65534;BME280;53640;55.838;37.184;2022-08-20T03:55:38;100252.03;;;17.23;37.29
65534;BME280;53640;55.838;37.184;2022-08-20T03:58:07;100223.69;;;17.06;37.73
65534;BME280;53640;55.838;37.184;2022-08-20T04:00:37;100250.47;;;17.27;37.57
65534;BME280;53640;55.838;37.184;2022-08-20T04:03:05;100230.34;;;17.10;37.53
65534;BME280;53640;55.838;37.184;2022-08-20T04:05:35;100249.38;;;17.28;37.35
65534;BME280;53640;55.838;37.184;2022-08-20T04:08:13;100258.44;;;17.29;37.75
65534;BME280;53640;55.838;37.184;2022-08-20T04:10:41;100247.38;;;17.24;37.52
65534;BME280;53640;55.838;37.184;2022-08-20T04:13:08;100201.00;;;16.94;37.51
65534;BME280;53640;55.838;37.184;2022-08-20T04:15:35;100220.22;;;17.11;37.57
65534;BME280;53640;55.838;37.184;2022-08-20T04:18:05;100245.56;;;17.29;37.24
65534;BME280;53640;55.838;37.184;2022-08-20T04:20:34;100246.75;;;17.34;37.71
65534;BME280;53640;55.838;37.184;2022-08-20T04:23:00;100252.81;;;17.36;37.44
65534;BME280;53640;55.838;37.184;2022-08-20T04:25:28;100218.94;;;17.13;37.81
65534;BME280;53640;55.838;37.184;2022-08-20T04:27:57;100219.66;;;17.09;37.64
65534;BME280;53640;55.838;37.184;2022-08-20T04:30:24;100237.34;;;17.29;38.20
65534;BME280;53640;55.838;37.184;2022-08-20T04:32:51;100212.41;;;17.14;37.56
65534;BME280;53640;55.838;37.184;2022-08-20T04:35:18;100239.03;;;17.30;37.84
65534;BME280;53640;55.838;37.184;2022-08-20T04:37:45;100211.44;;;17.20;37.65
65534;BME280;53640;55.838;37.184;2022-08-20T04:40:17;100249.72;;;17.44;37.99
65534;BME280;53640;55.838;37.184;2022-08-20T04:43:03;100237.59;;;17.40;37.75
65534;BME280;53640;55.838;37.184;2022-08-20T04:45:32;100217.97;;;17.31;37.95
65534;BME280;53640;55.838;37.184;2022-08-20T04:48:03;100250.41;;;17.51;37.44
65534;BME280;53640;55.838;37.184;2022-08-20T04:50:35;100227.25;;;17.42;37.47
65534;BME280;53640;55.838;37.184;2022-08-20T04:53:04;100220.56;;;17.49;37.22
65534;BME280;53640;55.838;37.184;2022-08-20T04:55:32;100224.06;;;17.62;37.16
65534;BME280;53640;55.838;37.184;2022-08-20T04:58:07;100225.25;;;17.66;37.20
65534;BME280;53640;55.838;37.184;2022-08-20T05:00:34;100236.16;;;17.77;37.33
65534;BME280;53640;55.838;37.184;2022-08-20T05:03:01;100200.25;;;17.62;36.90
65534;BME280;53640;55.838;37.184;2022-08-20T05:05:28;100242.22;;;17.91;36.50
65534;BME280;53640;55.838;37.184;2022-08-20T05:07:55;100230.03;;;17.99;36.97
65534;BME280;53640;55.838;37.184;2022-08-20T05:10:23;100200.91;;;17.81;36.22
65534;BME280;53640;55.838;37.184;2022-08-20T05:12:50;100223.41;;;18.12;36.27
65534;BME280;53640;55.838;37.184;2022-08-20T05:15:16;100217.59;;;18.08;36.62
65534;BME280;53640;55.838;37.184;2022-08-20T05:17:43;100246.34;;;18.22;35.84
65534;BME280;53640;55.838;37.184;2022-08-20T05:20:13;100218.06;;;18.05;36.12
65534;BME280;53640;55.838;37.184;2022-08-20T05:22:42;100255.31;;;18.18;35.51
65534;BME280;53640;55.838;37.184;2022-08-20T05:25:10;100261.63;;;18.18;35.13
65534;BME280;53640;55.838;37.184;2022-08-20T05:27:37;100218.25;;;17.98;34.29
65534;BME280;53640;55.838;37.184;2022-08-20T05:30:07;100242.41;;;17.90;34.25
65534;BME280;53640;55.838;37.184;2022-08-20T05:32:35;100225.59;;;17.98;34.19
65534;BME280;53640;55.838;37.184;2022-08-20T05:35:02;100240.19;;;18.15;33.69
65534;BME280;53640;55.838;37.184;2022-08-20T05:37:29;100232.97;;;18.26;33.99
65534;BME280;53640;55.838;37.184;2022-08-20T05:39:56;100229.75;;;18.29;33.93
65534;BME280;53640;55.838;37.184;2022-08-20T05:42:22;100235.97;;;18.24;32.99
65534;BME280;53640;55.838;37.184;2022-08-20T05:44:48;100214.47;;;18.33;33.06
65534;BME280;53640;55.838;37.184;2022-08-20T05:47:15;100213.16;;;18.36;32.86
65534;BME280;53640;55.838;37.184;2022-08-20T05:49:43;100261.50;;;18.59;32.99
65534;BME280;53640;55.838;37.184;2022-08-20T05:52:11;100233.31;;;18.46;32.32
65534;BME280;53640;55.838;37.184;2022-08-20T05:54:37;100242.13;;;18.48;32.60
65534;BME280;53640;55.838;37.184;2022-08-20T05:57:04;100268.16;;;18.63;32.72
65534;BME280;53640;55.838;37.184;2022-08-20T05:59:31;100207.88;;;18.34;32.54
65534;BME280;53640;55.838;37.184;2022-08-20T06:01:59;100239.78;;;18.57;31.96
65534;BME280;53640;55.838;37.184;2022-08-20T06:04:25;100216.94;;;18.35;32.36
65534;BME280;53640;55.838;37.184;2022-08-20T06:07:01;100199.09;;;18.32;32.21
65534;BME280;53640;55.838;37.184;2022-08-20T06:09:28;100272.28;;;18.65;32.52
65534;BME280;53640;55.838;37.184;2022-08-20T06:11:55;100261.94;;;18.67;32.15
65534;BME280;53640;55.838;37.184;2022-08-20T06:14:22;100248.34;;;18.61;32.45
65534;BME280;53640;55.838;37.184;2022-08-20T06:16:48;100291.84;;;18.69;31.98
65534;BME280;53640;55.838;37.184;2022-08-20T06:19:15;100259.44;;;18.66;32.31
65534;BME280;53640;55.838;37.184;2022-08-20T06:21:41;100260.03;;;18.68;32.37
65534;BME280;53640;55.838;37.184;2022-08-20T06:24:09;100257.75;;;18.65;32.62
65534;BME280;53640;55.838;37.184;2022-08-20T06:26:35;100249.72;;;18.75;31.61
65534;BME280;53640;55.838;37.184;2022-08-20T06:29:04;100253.56;;;18.74;31.92
65534;BME280;53640;55.838;37.184;2022-08-20T06:31:30;100252.19;;;18.77;32.48
65534;BME280;53640;55.838;37.184;2022-08-20T06:33:57;100225.78;;;18.70;32.59
65534;BME280;53640;55.838;37.184;2022-08-20T06:36:24;100213.66;;;18.66;32.59
65534;BME280;53640;55.838;37.184;2022-08-20T06:38:51;100231.34;;;18.92;31.91
65534;BME280;53640;55.838;37.184;2022-08-20T06:41:19;100233.97;;;19.04;31.86
65534;BME280;53640;55.838;37.184;2022-08-20T06:43:46;100245.59;;;19.11;32.19
65534;BME280;53640;55.838;37.184;2022-08-20T06:46:12;100263.47;;;19.14;31.72
65534;BME280;53640;55.838;37.184;2022-08-20T06:48:39;100220.69;;;18.96;31.82
65534;BME280;53640;55.838;37.184;2022-08-20T06:51:06;100260.47;;;19.15;31.76
65534;BME280;53640;55.838;37.184;2022-08-20T06:53:32;100237.03;;;19.08;31.52
65534;BME280;53640;55.838;37.184;2022-08-20T06:55:58;100215.91;;;19.08;31.42
65534;BME280;53640;55.838;37.184;2022-08-20T06:58:26;100250.59;;;19.36;31.29
65534;BME280;53640;55.838;37.184;2022-08-20T07:00:57;100252.09;;;19.44;31.45
65534;BME280;53640;55.838;37.184;2022-08-20T07:03:23;100149.03;;;18.92;31.26
65534;BME280;53640;55.838;37.184;2022-08-20T07:05:50;100206.22;;;19.22;31.57
65534;BME280;53640;55.838;37.184;2022-08-20T07:08:17;100214.03;;;19.31;31.01
65534;BME280;53640;55.838;37.184;2022-08-20T07:10:49;100194.34;;;19.17;30.58
65534;BME280;53640;55.838;37.184;2022-08-20T07:13:16;100201.25;;;19.19;30.80
65534;BME280;53640;55.838;37.184;2022-08-20T07:15:43;100221.84;;;19.22;31.23
65534;BME280;53640;55.838;37.184;2022-08-20T07:18:10;100226.34;;;19.28;30.96
65534;BME280;53640;55.838;37.184;2022-08-20T07:20:37;100202.53;;;19.12;31.45
65534;BME280;53640;55.838;37.184;2022-08-20T07:23:06;100236.31;;;19.34;31.03
65534;BME280;53640;55.838;37.184;2022-08-20T07:25:58;100240.31;;;19.27;31.30
65534;BME280;53640;55.838;37.184;2022-08-20T07:28:26;100237.91;;;19.30;31.44
65534;BME280;53640;55.838;37.184;2022-08-20T07:30:57;100226.06;;;19.30;31.22
65534;BME280;53640;55.838;37.184;2022-08-20T07:33:42;100190.63;;;19.06;30.90
65534;BME280;53640;55.838;37.184;2022-08-20T07:36:09;100218.88;;;19.23;30.86
65534;BME280;53640;55.838;37.184;2022-08-20T07:38:36;100215.34;;;19.28;30.78
65534;BME280;53640;55.838;37.184;2022-08-20T07:41:09;100227.25;;;19.34;31.24
65534;BME280;53640;55.838;37.184;2022-08-20T07:43:38;100214.19;;;19.24;31.11
65534;BME280;53640;55.838;37.184;2022-08-20T07:46:05;100196.84;;;19.18;30.85
65534;BME280;53640;55.838;37.184;2022-08-20T07:48:32;100193.19;;;19.13;31.39
65534;BME280;53640;55.838;37.184;2022-08-20T07:51:03;100191.28;;;19.13;31.06
65534;BME280;53640;55.838;37.184;2022-08-20T07:53:32;100217.81;;;19.30;30.56
65534;BME280;53640;55.838;37.184;2022-08-20T07:56:01;100180.25;;;19.08;30.99
65534;BME280;53640;55.838;37.184;2022-08-20T07:58:28;100202.56;;;19.17;31.10
65534;BME280;53640;55.838;37.184;2022-08-20T08:00:55;100178.75;;;19.01;31.20
65534;BME280;53640;55.838;37.184;2022-08-20T08:03:21;100200.53;;;19.07;31.47
65534;BME280;53640;55.838;37.184;2022-08-20T08:05:48;100211.63;;;19.17;31.27
65534;BME280;53640;55.838;37.184;2022-08-20T08:08:22;100199.88;;;19.00;31.33
65534;BME280;53640;55.838;37.184;2022-08-20T08:10:54;100201.22;;;18.97;31.33
65534;BME280;53640;55.838;37.184;2022-08-20T08:13:30;100190.25;;;18.97;31.48
65534;BME280;53640;55.838;37.184;2022-08-20T08:15:59;100239.50;;;19.26;31.33
65534;BME280;53640;55.838;37.184;2022-08-20T08:18:33;100234.31;;;19.30;31.37
65534;BME280;53640;55.838;37.184;2022-08-20T08:21:01;100225.88;;;19.36;31.02
65534;BME280;53640;55.838;37.184;2022-08-20T08:23:28;100202.63;;;19.39;31.08
65534;BME280;53640;55.838;37.184;2022-08-20T08:25:54;100213.91;;;19.64;30.86
65534;BME280;53640;55.838;37.184;2022-08-20T08:28:21;100212.13;;;19.75;30.36
65534;BME280;53640;55.838;37.184;2022-08-20T08:30:48;100233.94;;;19.87;30.88
65534;BME280;53640;55.838;37.184;2022-08-20T08:33:20;100220.72;;;19.84;30.53
65534;BME280;53640;55.838;37.184;2022-08-20T08:36:09;100221.69;;;20.00;30.08
65534;BME280;53640;55.838;37.184;2022-08-20T08:38:38;100231.78;;;20.16;30.15
65534;BME280;53640;55.838;37.184;2022-08-20T08:41:26;100238.19;;;20.27;29.85
65534;BME280;53640;55.838;37.184;2022-08-20T08:44:03;100236.91;;;20.34;29.34
65534;BME280;53640;55.838;37.184;2022-08-20T08:46:34;100235.03;;;20.40;28.93
65534;BME280;53640;55.838;37.184;2022-08-20T08:49:02;100256.03;;;20.51;29.13
65534;BME280;53640;55.838;37.184;2022-08-20T08:51:42;100235.59;;;20.42;29.07
65534;BME280;53640;55.838;37.184;2022-08-20T08:54:15;100223.00;;;20.19;28.69
65534;BME280;53640;55.838;37.184;2022-08-20T08:56:42;100260.91;;;20.44;28.29
65534;BME280;53640;55.838;37.184;2022-08-20T08:59:09;100256.97;;;20.35;28.70
65534;BME280;53640;55.838;37.184;2022-08-20T09:01:45;100256.91;;;20.25;28.53
65534;BME280;53640;55.838;37.184;2022-08-20T09:04:13;100244.59;;;20.05;28.99
65534;BME280;53640;55.838;37.184;2022-08-20T09:06:41;100226.88;;;19.96;28.30
65534;BME280;53640;55.838;37.184;2022-08-20T09:09:30;100275.38;;;20.07;28.19
65534;BME280;53640;55.838;37.184;2022-08-20T09:12:04;100252.91;;;19.88;28.73
65534;BME280;53640;55.838;37.184;2022-08-20T09:14:31;100241.38;;;19.64;28.25
65534;BME280;53640;55.838;37.184;2022-08-20T09:16:57;100216.34;;;19.39;28.74
65534;BME280;53640;55.838;37.184;2022-08-20T09:19:23;100257.59;;;19.66;29.08
65534;BME280;53640;55.838;37.184;2022-08-20T09:21:50;100247.38;;;19.39;28.99
65534;BME280;53640;55.838;37.184;2022-08-20T09:24:16;100233.28;;;19.36;29.06
65534;BME280;53640;55.838;37.184;2022-08-20T09:26:42;100250.75;;;19.46;29.32
65534;BME280;53640;55.838;37.184;2022-08-20T09:29:09;100260.94;;;19.46;28.96
65534;BME280;53640;55.838;37.184;2022-08-20T09:31:36;100268.91;;;19.47;30.11
65534;BME280;53640;55.838;37.184;2022-08-20T09:34:03;100271.25;;;19.39;30.14
65534;BME280;53640;55.838;37.184;2022-08-20T09:36:29;100277.81;;;19.38;32.47
65534;BME280;53640;55.838;37.184;2022-08-20T09:38:55;100270.00;;;19.30;31.21
65534;BME280;53640;55.838;37.184;2022-08-20T09:41:22;100263.56;;;19.19;31.49
65534;BME280;53640;55.838;37.184;2022-08-20T09:43:48;100279.53;;;19.05;32.58
65534;BME280;53640;55.838;37.184;2022-08-20T09:46:14;100273.78;;;19.07;32.20
65534;BME280;53640;55.838;37.184;2022-08-20T09:48:41;100251.97;;;18.78;33.23
65534;BME280;53640;55.838;37.184;2022-08-20T09:51:07;100279.22;;;19.02;32.37
65534;BME280;53640;55.838;37.184;2022-08-20T09:53:34;100275.41;;;18.86;32.84
65534;BME280;53640;55.838;37.184;2022-08-20T09:56:01;100296.84;;;18.89;34.09
65534;BME280;53640;55.838;37.184;2022-08-20T09:58:36;100279.13;;;18.80;33.28
65534;BME280;53640;55.838;37.184;2022-08-20T10:01:14;100253.16;;;18.54;34.52
65534;BME280;53640;55.838;37.184;2022-08-20T10:03:42;100276.53;;;18.56;36.32
65534;BME280;53640;55.838;37.184;2022-08-20T10:06:10;100260.06;;;18.56;35.69
65534;BME280;53640;55.838;37.184;2022-08-20T10:08:40;100267.97;;;18.52;36.45
65534;BME280;53640;55.838;37.184;2022-08-20T10:11:06;100222.84;;;18.26;36.05
65534;BME280;53640;55.838;37.184;2022-08-20T10:13:32;100249.75;;;18.46;36.14
65534;BME280;53640;55.838;37.184;2022-08-20T10:15:58;100217.09;;;18.28;36.39
65534;BME280;53640;55.838;37.184;2022-08-20T10:18:25;100233.50;;;18.40;36.17
65534;BME280;53640;55.838;37.184;2022-08-20T10:20:51;100252.00;;;18.49;36.63
65534;BME280;53640;55.838;37.184;2022-08-20T10:23:17;100243.28;;;18.52;36.75
65534;BME280;53640;55.838;37.184;2022-08-20T10:25:44;100194.34;;;18.27;37.05
65534;BME280;53640;55.838;37.184;2022-08-20T10:28:10;100203.25;;;18.35;38.05
65534;BME280;53640;55.838;37.184;2022-08-20T10:30:37;100220.03;;;18.38;38.33
65534;BME280;53640;55.838;37.184;2022-08-20T10:33:03;100194.00;;;18.24;39.41
65534;BME280;53640;55.838;37.184;2022-08-20T10:35:29;100202.63;;;18.16;39.98
65534;BME280;53640;55.838;37.184;2022-08-20T10:37:56;100235.97;;;18.24;39.77
65534;BME280;53640;55.838;37.184;2022-08-20T10:40:22;100227.06;;;18.17;39.71
65534;BME280;53640;55.838;37.184;2022-08-20T10:42:49;100247.09;;;18.18;40.33
65534;BME280;53640;55.838;37.184;2022-08-20T10:45:16;100162.91;;;17.56;39.62
65534;BME280;53640;55.838;37.184;2022-08-20T10:47:43;100231.59;;;17.95;40.29
65534;BME280;53640;55.838;37.184;2022-08-20T10:50:13;100218.00;;;17.88;41.46
65534;BME280;53640;55.838;37.184;2022-08-20T10:52:40;100241.81;;;17.99;40.32
65534;BME280;53640;55.838;37.184;2022-08-20T10:55:07;100253.38;;;17.90;40.65
65534;BME280;53640;55.838;37.184;2022-08-20T10:57:33;100225.00;;;17.67;41.42
65534;BME280;53640;55.838;37.184;2022-08-20T11:00:00;100236.56;;;17.69;40.88
65534;BME280;53640;55.838;37.184;2022-08-20T11:02:27;100262.47;;;17.78;41.43
65534;BME280;53640;55.838;37.184;2022-08-20T11:04:54;100268.53;;;17.81;41.31
65534;BME280;53640;55.838;37.184;2022-08-20T11:07:32;100221.81;;;17.59;41.19
65534;BME280;53640;55.838;37.184;2022-08-20T11:09:59;100209.69;;;17.54;40.33
65534;BME280;53640;55.838;37.184;2022-08-20T11:12:26;100248.34;;;17.70;40.50
65534;BME280;53640;55.838;37.184;2022-08-20T11:14:53;100223.38;;;17.54;40.43
65534;BME280;53640;55.838;37.184;2022-08-20T11:17:21;100203.19;;;17.44;41.63
65534;BME280;53640;55.838;37.184;2022-08-20T11:19:48;100233.47;;;17.66;41.48
65534;BME280;53640;55.838;37.184;2022-08-20T11:22:15;100236.56;;;17.69;41.32
65534;BME280;53640;55.838;37.184;2022-08-20T11:24:42;100208.53;;;17.50;40.96
65534;BME280;53640;55.838;37.184;2022-08-20T11:27:09;100215.75;;;17.57;40.59
65534;BME280;53640;55.838;37.184;2022-08-20T11:29:36;100193.66;;;17.46;40.74
65534;BME280;53640;55.838;37.184;2022-08-20T11:32:04;100232.25;;;17.73;41.38
65534;BME280;53640;55.838;37.184;2022-08-20T11:34:31;100198.13;;;17.52;40.64
65534;BME280;53640;55.838;37.184;2022-08-20T11:36:57;100240.56;;;17.78;40.91
65534;BME280;53640;55.838;37.184;2022-08-20T11:39:25;100227.47;;;17.81;41.12
65534;BME280;53640;55.838;37.184;2022-08-20T11:41:51;100231.94;;;17.87;40.53
65534;BME280;53640;55.838;37.184;2022-08-20T11:44:18;100214.69;;;17.86;40.53
65534;BME280;53640;55.838;37.184;2022-08-20T11:46:44;100215.03;;;17.90;40.77
65534;BME280;53640;55.838;37.184;2022-08-20T11:49:11;100204.53;;;17.87;40.36
65534;BME280;53640;55.838;37.184;2022-08-20T11:51:39;100211.91;;;17.98;40.39
65534;BME280;53640;55.838;37.184;2022-08-20T11:54:05;100205.22;;;18.06;39.84
65534;BME280;53640;55.838;37.184;2022-08-20T11:56:32;100170.72;;;17.93;40.27
65534;BME280;53640;55.838;37.184;2022-08-20T11:58:58;100201.25;;;18.13;39.98
65534;BME280;53640;55.838;37.184;2022-08-20T12:01:25;100204.00;;;18.30;39.96
65534;BME280;53640;55.838;37.184;2022-08-20T12:03:51;100151.81;;;18.08;39.46
65534;BME280;53640;55.838;37.184;2022-08-20T12:06:17;100190.19;;;18.42;39.28
65534;BME280;53640;55.838;37.184;2022-08-20T12:08:44;100188.38;;;18.47;38.94
65534;BME280;53640;55.838;37.184;2022-08-20T12:11:10;100148.84;;;18.26;39.19
65534;BME280;53640;55.838;37.184;2022-08-20T12:13:36;100170.03;;;18.48;39.20
65534;BME280;53640;55.838;37.184;2022-08-20T12:16:03;100132.72;;;18.30;39.00
65534;BME280;53640;55.838;37.184;2022-08-20T12:18:30;100162.94;;;18.52;38.61
65534;BME280;53640;55.838;37.184;2022-08-20T12:20:57;100159.13;;;18.53;38.81
65534;BME280;53640;55.838;37.184;2022-08-20T12:23:23;100152.53;;;18.54;37.89
65534;BME280;53640;55.838;37.184;2022-08-20T12:25:50;100155.13;;;18.61;38.07
65534;BME280;53640;55.838;37.184;2022-08-20T12:28:16;100141.25;;;18.50;37.96
65534;BME280;53640;55.838;37.184;2022-08-20T12:30:42;100159.19;;;18.58;37.73
65534;BME280;53640;55.838;37.184;2022-08-20T12:33:09;100154.22;;;18.55;37.35
65534;BME280;53640;55.838;37.184;2022-08-20T12:35:35;100130.97;;;18.41;37.11
65534;BME280;53640;55.838;37.184;2022-08-20T12:38:04;100082.22;;;18.09;36.76
65534;BME280;53640;55.838;37.184;2022-08-20T12:40:32;100102.50;;;18.25;36.66
65534;BME280;53640;55.838;37.184;2022-08-20T12:42:59;100106.97;;;18.31;36.58
65534;BME280;53640;55.838;37.184;2022-08-20T12:45:26;100136.19;;;18.59;36.27
65534;BME280;53640;55.838;37.184;2022-08-20T12:47:59;100078.22;;;18.34;35.91
65534;BME280;53640;55.838;37.184;2022-08-20T12:50:26;100075.56;;;18.39;35.71
65534;BME280;53640;55.838;37.184;2022-08-20T12:52:52;100112.34;;;18.60;35.42
65534;BME280;53640;55.838;37.184;2022-08-20T12:55:19;100094.91;;;18.49;35.22